Relevés horaires Lugano (Suisse)


Relevés horaires à Lugano - Jeudi 22 Sept. 2005
Heure UTC1 Température [°C] Vent [km/h] Hum. [%] Pres.4 [hPa] Visi. [Km] Nébu. [octa] Préc.5 [mm] Cond.
2m. Res. Ros. Dir.2 Vit. Moy. Raf.3
23:00 15.5 15.5 12.8 O 3.7 -- -- 84 1021.5 -- -- -- --
22:00 15.6 15.6 12.7 NNO 3.7 -- -- 83 1021.6 -- -- -- --
21:00 15.5 15.5 12.9 NNO 3.7 -- -- 84 1021.6 -- -- -- --
20:00 15.9 15.9 12.8 NNO 5.6 -- -- 82 1021.4 -- -- -- --
19:00 16.6 16.6 12.8 NO 7.4 -- -- 78 1020.8 -- -- -- --
18:00 17.5 17.5 14.1 NNO 7.4 -- -- 80 1019.9 20 6/8 -- --
17:00 19.6 19.6 12.3 SSO 3.7 -- -- 63 1019.4 -- -- -- --
16:00 19.8 19.8 12.5 S 7.4 -- -- 63 1019.4 -- -- -- --
15:00 20.1 20.1 12.4 S 7.4 -- -- 61 1019.5 -- -- -- --
14:00 19.6 19.6 12.3 SSE 5.6 -- -- 63 1020 -- -- -- --
13:00 18.7 18.7 11.9 SE 5.6 5.6 9.3 65 1020.5(-0.9/3h) -- -- -- --
12:00 17.3 17.3 12.8 SE 3.7 7.4 16.7 75 1021(-0.6/3h) 10 5/8 0/0h
--
11:00 17.3 17.3 12.8 SSE 3.7 3.7 7.4 75 1021.3(0.0/3h) -- -- -- --
10:00 16.6 16.6 12.2 S 1.9 3.7 5.6 75 1021.7(0.7/3h) -- -- -- --
09:00 15.9 15.9 12.3 NNO 0.0 5.6 9.3 79 1021.8(0.9/3h) -- -- -- --
08:00 15.1 15.1 13.9 N 3.7 3.7 7.4 93 1021.6(0.7/3h) -- -- -- --
07:00 14.8 14.8 13.6 N 1.9 5.6 9.3 93 1021.2(0.4/3h) -- -- -- --
06:00 14.5 14.5 13.4 NO 3.7 13.0 24.1 93 1021(0.1/3h) 1 8/8 16/12h
Pluie
05:00 14.6 14.6 13.7 N 5.6 5.6 9.3 94 1020.9(0.0/3h) -- -- -- --
04:00 14.7 14.7 13.8 N 5.6 5.6 9.3 94 1020.8(-0.3/3h) -- -- -- --
03:00 15.0 15.0 14.1 N 5.6 13.0 20.4 94 1020.8(0.1/3h) 1 8/8 -- Pluie modérée intermittente
02:00 15.1 15.1 14.2 N 5.6 7.4 16.7 94 1020.8(0.3/3h) -- -- -- --
01:00 15.3 15.3 13.9 S 7.4 13.0 18.5 91 1021(0.8/3h) -- -- -- --
00:00 16.1 16.1 15.1 NNE 1.9 14.8 24.1 94 1020.6(0.8/3h) 1 8/8 3/6h
Légère bruine intermittente

1 Coordinated Universal Time. Actuellement il est 17:00 locale et 15:00 UTC.

2 Le vent souffle depuis la direction indiquée vers la direction oposée.

3 Les rafales max. sont disponible 40 min après l'heure du relevé.

4 Pour les stations d'altitude (plus de 600m) le géopotentiel du niveau le plus proche de la pression obligatoire est indiqué.

5 Les stations disposant d'un diffuseur peuvent indiquer "trace". Cela signifie que des précipitations ont touchés le sol mais que la quantité est inférieure à 0.1 mm.

Copyright

Les données affichées sur cette page sont la propriété exclusive de Météo Suisse.

Récapitulatif de la journée
Température [°C] Vent [km/h] Ensoleillement4 [h] Precipitations totale5 [mm] Pression [Hpa]
Min1 Max.2 Moy.3 Max. Min Max.
14.5 -- 7.7 24.1 0 h 0 min 0 1019.4 1021.8

1 Température minimale relevée entre 18:00 UTC la veille et 18:00 UTC le jour donné.

2 Température maximale relevée entre 06:00 UTC le jour donné et 06:00 UTC le lendemain.

3 Vent moyen de la journée basé sur les relevés horaires.

4 Ensoleillement en heures relevé entre 06:00 UTC la veille et 06:00 UTC le jour donné.

5 Précipitations totales tombées entre 06:00 UTC la jour donné et 06:00 UTC le lendemain.

Graphiques horaires